createdAt,value
2019-04-28T00:00:05.121Z,94.56
2019-04-28T00:01:05.120Z,94.84
2019-04-28T00:02:05.103Z,93.98
2019-04-28T00:03:05.063Z,94.74
2019-04-28T00:04:05.052Z,95.32
2019-04-28T00:05:05.023Z,95.98
2019-04-28T00:06:05.006Z,96.46
2019-04-28T00:07:05.002Z,95.60
2019-04-28T00:08:04.967Z,95.60
2019-04-28T00:09:04.943Z,95.60
2019-04-28T00:10:04.931Z,95.12
2019-04-28T00:11:04.912Z,95.79
2019-04-28T00:12:04.886Z,95.70
2019-04-28T00:13:04.884Z,95.51
2019-04-28T00:14:04.846Z,95.89
2019-04-28T00:15:04.826Z,95.98
2019-04-28T00:16:04.816Z,96.36
2019-04-28T00:17:04.791Z,95.70
2019-04-28T00:18:04.785Z,95.03
2019-04-28T00:19:05.698Z,96.46
2019-04-28T00:20:04.731Z,96.17
2019-04-28T00:21:04.712Z,95.41
2019-04-28T00:22:04.691Z,96.08
2019-04-28T00:23:06.966Z,95.79
2019-04-28T00:24:04.667Z,95.89
2019-04-28T00:25:04.649Z,95.89
2019-04-28T00:26:04.631Z,95.60
2019-04-28T00:27:04.598Z,95.70
2019-04-28T00:28:04.575Z,95.12
2019-04-28T00:29:04.548Z,95.32
2019-04-28T00:30:04.542Z,95.51
2019-04-28T00:31:04.512Z,95.32
2019-04-28T00:32:04.512Z,95.22
2019-04-28T00:33:04.481Z,96.27
2019-04-28T00:34:04.460Z,96.27
2019-04-28T00:35:04.455Z,95.32
2019-04-28T00:36:04.420Z,95.79
2019-04-28T00:37:04.409Z,95.70
2019-04-28T00:38:04.378Z,96.17
2019-04-28T00:39:04.358Z,96.08
2019-04-28T00:40:04.339Z,95.22
2019-04-28T00:41:04.334Z,95.22
2019-04-28T00:42:04.301Z,95.51
2019-04-28T00:43:04.405Z,95.60
2019-04-28T00:44:04.262Z,96.08
2019-04-28T00:45:04.249Z,97.03
2019-04-28T00:46:04.246Z,96.89
2019-04-28T00:47:04.204Z,96.31
2019-04-28T00:48:04.190Z,96.46
2019-04-28T00:49:04.162Z,96.27
2019-04-28T00:50:04.146Z,96.17
2019-04-28T00:51:04.127Z,96.17
2019-04-28T00:52:04.124Z,96.27
2019-04-28T00:53:04.084Z,96.46
2019-04-28T00:54:04.066Z,96.75
2019-04-28T00:55:04.046Z,97.41
2019-04-28T00:56:04.028Z,97.22
2019-04-28T00:57:04.028Z,97.51
2019-04-28T00:58:03.996Z,98.27
2019-04-28T00:59:03.965Z,97.31
2019-04-28T01:00:03.974Z,97.41
2019-04-28T01:01:03.924Z,98.08
2019-04-28T01:02:03.916Z,98.36
2019-04-28T01:03:03.909Z,97.89
2019-04-28T01:04:03.871Z,97.27
2019-04-28T01:05:03.848Z,97.93
2019-04-28T01:06:03.833Z,98.27
2019-04-28T01:07:03.872Z,99.27
2019-04-28T01:08:03.810Z,98.79
2019-04-28T01:09:03.899Z,98.36
2019-04-28T01:10:03.752Z,98.22
2019-04-28T01:11:03.746Z,98.13
2019-04-28T01:12:03.714Z,98.32
2019-04-28T01:13:03.694Z,98.88
2019-04-28T01:14:03.696Z,98.50
2019-04-28T01:15:04.930Z,98.03
2019-04-28T01:16:03.636Z,98.79
2019-04-28T01:17:03.639Z,99.08
2019-04-28T01:18:03.593Z,98.60
2019-04-28T01:19:03.655Z,98.13
2019-04-28T01:20:03.557Z,98.22
2019-04-28T01:21:03.557Z,98.98
2019-04-28T01:22:03.519Z,98.69
2019-04-28T01:23:03.507Z,98.79
2019-04-28T01:24:03.477Z,98.65
2019-04-28T01:25:03.502Z,98.27
2019-04-28T01:26:03.457Z,98.03
2019-04-28T01:27:03.421Z,98.13
2019-04-28T01:28:03.398Z,98.79
2019-04-28T01:29:03.382Z,98.84
2019-04-28T01:30:09.139Z,98.46
2019-04-28T01:31:03.354Z,97.55
2019-04-28T01:32:03.315Z,98.36
2019-04-28T01:33:03.308Z,98.84
2019-04-28T01:34:03.285Z,98.69
2019-04-28T01:35:03.267Z,98.79
2019-04-28T01:36:03.258Z,98.84
2019-04-28T01:37:03.232Z,98.50
2019-04-28T01:38:03.204Z,98.46
2019-04-28T01:39:03.188Z,98.79
2019-04-28T01:40:03.166Z,98.50
2019-04-28T01:41:03.162Z,98.98
2019-04-28T01:42:03.127Z,98.03
2019-04-28T01:43:03.117Z,98.88
2019-04-28T01:44:03.082Z,99.03
2019-04-28T01:45:03.062Z,98.88
2019-04-28T01:46:03.043Z,98.88
2019-04-28T01:47:03.041Z,98.60
2019-04-28T01:48:03.007Z,98.79
2019-04-28T01:49:02.994Z,98.88
2019-04-28T01:50:02.984Z,98.88
2019-04-28T01:51:02.950Z,98.69
2019-04-28T01:52:02.927Z,98.79
2019-04-28T01:53:02.903Z,98.98
2019-04-28T01:54:02.884Z,98.60
2019-04-28T01:55:02.873Z,98.79
2019-04-28T01:56:02.864Z,99.08
2019-04-28T01:57:02.825Z,99.74
2019-04-28T01:58:02.823Z,98.88
2019-04-28T01:59:02.789Z,98.50
2019-04-28T02:00:02.768Z,99.27
2019-04-28T02:01:02.766Z,98.79
2019-04-28T02:02:02.729Z,98.60
2019-04-28T02:03:02.711Z,98.98
2019-04-28T02:04:02.694Z,99.08
2019-04-28T02:05:02.679Z,99.36
2019-04-28T02:06:02.648Z,98.88
2019-04-28T02:07:02.649Z,98.88
2019-04-28T02:08:02.609Z,99.27
2019-04-28T02:09:02.586Z,99.17
2019-04-28T02:10:02.577Z,98.79
2019-04-28T02:11:02.552Z,99.74
2019-04-28T02:12:02.557Z,99.74
2019-04-28T02:13:02.514Z,99.99
2019-04-28T02:14:02.496Z,99.99
2019-04-28T02:15:02.476Z,99.99
2019-04-28T02:16:02.455Z,99.99
2019-04-28T02:17:02.435Z,99.99
2019-04-28T02:18:02.431Z,99.99
2019-04-28T02:19:02.394Z,99.99
2019-04-28T02:20:02.371Z,99.99
2019-04-28T02:21:02.371Z,99.99
2019-04-28T02:22:02.336Z,99.99
2019-04-28T02:23:02.313Z,99.46
2019-04-28T02:24:02.294Z,99.84
2019-04-28T02:25:02.300Z,99.46
2019-04-28T02:26:02.254Z,99.65
2019-04-28T02:27:02.240Z,99.65
2019-04-28T02:28:02.279Z,99.93
2019-04-28T02:29:02.192Z,99.74
2019-04-28T02:30:02.194Z,99.93
2019-04-28T02:31:02.479Z,99.99
2019-04-28T02:32:02.654Z,99.99
2019-04-28T02:33:02.118Z,99.99
2019-04-28T02:34:02.098Z,99.99
2019-04-28T02:35:02.097Z,99.99
2019-04-28T02:36:02.151Z,99.99
2019-04-28T02:37:02.199Z,99.99
2019-04-28T02:38:02.016Z,99.99
2019-04-28T02:39:01.997Z,99.99
2019-04-28T02:40:03.556Z,99.99
2019-04-28T02:41:01.971Z,99.99
2019-04-28T02:42:02.081Z,99.99
2019-04-28T02:43:01.916Z,99.99
2019-04-28T02:44:01.927Z,99.99
2019-04-28T02:45:01.885Z,99.55
2019-04-28T02:46:01.869Z,99.84
2019-04-28T02:47:01.843Z,99.84
2019-04-28T02:48:01.832Z,99.46
2019-04-28T02:49:01.796Z,99.99
2019-04-28T02:50:01.829Z,99.99
2019-04-28T02:51:01.770Z,99.99
2019-04-28T02:52:03.083Z,99.99
2019-04-28T02:53:02.129Z,99.99
2019-04-28T02:54:01.698Z,99.99
2019-04-28T02:55:02.987Z,99.99
2019-04-28T02:56:01.660Z,99.84
2019-04-28T02:57:01.656Z,99.65
2019-04-28T02:58:01.841Z,99.99
2019-04-28T02:59:01.598Z,99.99
2019-04-28T03:00:01.580Z,99.99
2019-04-28T03:01:11.142Z,99.99
2019-04-28T03:02:01.539Z,99.74
2019-04-28T03:03:01.793Z,99.99
2019-04-28T03:04:01.498Z,99.99
2019-04-28T03:05:01.509Z,99.99
2019-04-28T03:06:01.832Z,99.99
2019-04-28T03:07:01.582Z,99.99
2019-04-28T03:08:01.465Z,99.99
2019-04-28T03:09:01.397Z,99.99
2019-04-28T03:10:03.866Z,99.99
2019-04-28T03:11:01.361Z,99.99
2019-04-28T03:12:01.688Z,99.99
2019-04-28T03:13:01.571Z,99.93
2019-04-28T03:14:01.303Z,99.99
2019-04-28T03:15:01.278Z,99.84
2019-04-28T03:16:01.840Z,99.84
2019-04-28T03:17:01.246Z,99.84
2019-04-28T03:18:02.081Z,99.84
2019-04-28T03:19:01.501Z,99.36
2019-04-28T03:20:01.484Z,99.74
2019-04-28T03:21:04.245Z,99.74
2019-04-28T03:22:01.522Z,99.55
2019-04-28T03:23:01.303Z,98.69
2019-04-28T03:24:01.347Z,98.79
2019-04-28T03:25:01.112Z,98.79
2019-04-28T03:26:01.528Z,98.69
2019-04-28T03:27:03.496Z,98.79
2019-04-28T03:28:01.024Z,98.79
2019-04-28T03:29:01.133Z,98.50
2019-04-28T03:30:01.144Z,98.41
2019-04-28T03:31:06.472Z,98.79
2019-04-28T03:32:22.087Z,98.60
2019-04-28T03:33:10.643Z,98.88
2019-04-28T03:34:03.994Z,98.88
2019-04-28T03:35:02.863Z,99.46
2019-04-28T03:36:07.120Z,99.27
2019-04-28T03:37:00.842Z,99.36
2019-04-28T03:38:01.345Z,99.74
2019-04-28T03:39:00.902Z,99.93
2019-04-28T03:40:00.823Z,99.74
2019-04-28T03:41:01.103Z,99.99
2019-04-28T03:42:00.736Z,99.93
2019-04-28T03:43:03.208Z,99.99
2019-04-28T03:44:00.747Z,99.99
2019-04-28T03:45:01.125Z,99.99
2019-04-28T03:46:03.407Z,99.99
2019-04-28T03:47:03.032Z,99.99
2019-04-28T03:48:00.617Z,99.99
2019-04-28T03:49:00.938Z,99.99
2019-04-28T03:50:00.583Z,99.99
2019-04-28T03:51:00.818Z,99.99
2019-04-28T03:52:00.553Z,99.99
2019-04-28T03:53:01.195Z,99.99
2019-04-28T03:54:02.978Z,99.99
2019-04-28T03:55:00.691Z,99.99
2019-04-28T03:56:01.639Z,99.99
2019-04-28T03:57:01.251Z,99.99
2019-04-28T03:58:01.025Z,99.99
2019-04-28T03:59:00.581Z,99.99
2019-04-28T04:00:01.467Z,99.99
2019-04-28T04:01:02.973Z,99.99
2019-04-28T04:02:03.144Z,99.99
2019-04-28T04:03:00.911Z,99.99
2019-04-28T04:04:01.243Z,99.93
2019-04-28T04:05:00.800Z,99.84
2019-04-28T04:06:00.928Z,99.93
2019-04-28T04:07:01.449Z,99.74
2019-04-28T04:08:01.024Z,99.55
2019-04-28T04:09:00.450Z,99.99
2019-04-28T04:10:00.920Z,99.99
2019-04-28T04:11:00.447Z,99.99
2019-04-28T04:12:00.373Z,99.99
2019-04-28T04:13:00.906Z,99.65
2019-04-28T04:14:01.659Z,99.74
2019-04-28T04:15:01.442Z,99.74
2019-04-28T04:16:01.644Z,99.46
2019-04-28T04:17:00.227Z,99.84
2019-04-28T04:18:01.296Z,99.99
2019-04-28T04:19:00.729Z,99.99
2019-04-28T04:20:01.846Z,99.84
2019-04-28T04:21:00.776Z,99.99
2019-04-28T04:22:00.400Z,99.99
2019-04-28T04:23:01.366Z,99.99
2019-04-28T04:24:01.057Z,99.99
2019-04-28T04:25:01.302Z,99.99
2019-04-28T04:26:01.827Z,99.99
2019-04-28T04:27:00.818Z,99.99
2019-04-28T04:28:03.225Z,99.99
2019-04-28T04:29:00.973Z,99.99
2019-04-28T04:30:01.625Z,99.99
2019-04-28T04:31:02.530Z,99.99
2019-04-28T04:32:13.415Z,99.99
2019-04-28T04:33:01.198Z,99.99
2019-04-28T04:34:00.742Z,99.99
2019-04-28T04:35:00.674Z,99.99
2019-04-28T04:36:01.581Z,99.99
2019-04-28T04:37:00.684Z,99.99
2019-04-28T04:38:00.546Z,99.99
2019-04-28T04:39:01.860Z,99.99
2019-04-28T04:40:01.492Z,99.99
2019-04-28T04:41:01.433Z,99.99
2019-04-28T04:42:00.636Z,99.99
2019-04-28T04:43:01.639Z,99.99
2019-04-28T04:44:01.052Z,99.99
2019-04-28T04:45:00.492Z,99.99
2019-04-28T04:46:01.463Z,99.99
2019-04-28T04:47:00.993Z,99.99
2019-04-28T04:48:00.617Z,99.99
2019-04-28T04:49:00.713Z,99.99
2019-04-28T04:50:00.225Z,99.99
2019-04-28T04:51:00.773Z,99.99
2019-04-28T04:52:00.403Z,99.99
2019-04-28T04:52:59.435Z,99.99
2019-04-28T04:54:01.105Z,99.99
2019-04-28T04:55:01.306Z,99.99
2019-04-28T04:56:00.361Z,99.99
2019-04-28T04:57:00.086Z,99.99
2019-04-28T04:58:00.756Z,99.99
2019-04-28T04:59:00.399Z,99.99
2019-04-28T04:59:59.970Z,99.99
2019-04-28T05:01:00.712Z,99.99
2019-04-28T05:02:01.716Z,99.99
2019-04-28T05:03:00.837Z,99.99
2019-04-28T05:03:59.640Z,99.99
2019-04-28T05:05:00.421Z,99.99
2019-04-28T05:06:00.140Z,99.99
2019-04-28T05:06:59.717Z,99.99
2019-04-28T05:08:00.347Z,99.99
2019-04-28T05:08:59.930Z,99.99
2019-04-28T05:09:59.548Z,99.99
2019-04-28T05:11:00.026Z,99.99
2019-04-28T05:11:59.784Z,99.99
2019-04-28T05:13:00.201Z,99.99
2019-04-28T05:13:59.684Z,99.99
2019-04-28T05:15:00.485Z,99.99
2019-04-28T05:15:59.797Z,99.99
2019-04-28T05:17:00.654Z,99.99
2019-04-28T05:18:00.207Z,99.99
2019-04-28T05:19:00.032Z,99.99
2019-04-28T05:19:59.705Z,99.99
2019-04-28T05:20:59.456Z,99.99
2019-04-28T05:22:00.020Z,99.99
2019-04-28T05:23:00.274Z,99.99
2019-04-28T05:23:59.615Z,99.99
2019-04-28T05:25:00.088Z,99.99
2019-04-28T05:26:03.347Z,99.99
2019-04-28T05:26:59.591Z,99.99
2019-04-28T05:28:01.332Z,99.99
2019-04-28T05:28:59.531Z,99.99
2019-04-28T05:30:02.555Z,99.99
2019-04-28T05:31:00.064Z,99.99
2019-04-28T05:31:59.699Z,99.99
2019-04-28T05:33:00.252Z,99.99
2019-04-28T05:34:00.015Z,99.99
2019-04-28T05:35:00.173Z,99.99
2019-04-28T05:36:01.834Z,99.99
2019-04-28T05:37:00.537Z,99.99
2019-04-28T05:37:59.763Z,99.99
2019-04-28T05:39:00.118Z,99.99
2019-04-28T05:40:00.662Z,99.99
2019-04-28T05:41:02.341Z,99.99
2019-04-28T05:41:58.343Z,99.99
2019-04-28T05:43:00.505Z,99.99
2019-04-28T05:43:59.609Z,99.99
2019-04-28T05:44:59.967Z,99.99
2019-04-28T05:46:00.159Z,99.99
2019-04-28T05:46:59.558Z,99.99
2019-04-28T05:47:59.423Z,99.99
2019-04-28T05:48:59.663Z,99.99
2019-04-28T05:49:59.875Z,99.99
2019-04-28T05:50:59.873Z,99.99
2019-04-28T05:51:58.162Z,99.99
2019-04-28T05:52:58.124Z,99.99
2019-04-28T05:53:59.498Z,99.99
2019-04-28T05:54:59.722Z,99.99
2019-04-28T05:55:59.949Z,99.99
2019-04-28T05:56:59.736Z,99.99
2019-04-28T05:57:59.859Z,99.99
2019-04-28T05:58:58.011Z,99.99
2019-04-28T06:00:01.046Z,99.99
2019-04-28T06:01:00.120Z,99.99
2019-04-28T06:01:57.950Z,99.99
2019-04-28T06:02:57.947Z,99.99
2019-04-28T06:03:57.909Z,99.99
2019-04-28T06:04:59.819Z,99.99
2019-04-28T06:05:59.826Z,99.99
2019-04-28T06:06:59.656Z,99.99
2019-04-28T06:07:59.546Z,99.99
2019-04-28T06:08:59.700Z,99.99
2019-04-28T06:09:57.813Z,99.99
2019-04-28T06:10:57.769Z,99.99
2019-04-28T06:12:00.008Z,99.99
2019-04-28T06:12:59.633Z,99.99
2019-04-28T06:13:59.757Z,99.99
2019-04-28T06:14:57.707Z,99.99
2019-04-28T06:15:57.674Z,99.65
2019-04-28T06:16:57.653Z,99.84
2019-04-28T06:17:57.717Z,99.99
2019-04-28T06:18:57.609Z,99.93
2019-04-28T06:19:57.589Z,99.99
2019-04-28T06:20:57.585Z,99.93
2019-04-28T06:21:57.642Z,99.55
2019-04-28T06:22:57.527Z,99.17
2019-04-28T06:23:57.511Z,98.60
2019-04-28T06:24:57.490Z,98.98
2019-04-28T06:25:57.664Z,99.08
2019-04-28T06:26:57.450Z,98.88
2019-04-28T06:27:57.449Z,98.79
2019-04-28T06:28:57.412Z,98.60
2019-04-28T06:29:57.394Z,98.60
2019-04-28T06:30:57.378Z,98.88
2019-04-28T06:31:57.355Z,98.88
2019-04-28T06:33:07.229Z,99.27
2019-04-28T06:33:57.312Z,98.79
2019-04-28T06:34:57.309Z,98.50
2019-04-28T06:35:57.275Z,99.08
2019-04-28T06:36:57.253Z,99.46
2019-04-28T06:37:57.239Z,98.79
2019-04-28T06:38:57.209Z,98.88
2019-04-28T06:39:57.210Z,99.65
2019-04-28T06:40:57.173Z,99.74
2019-04-28T06:41:57.166Z,98.50
2019-04-28T06:42:57.151Z,99.65
2019-04-28T06:43:57.121Z,99.99
2019-04-28T06:44:57.096Z,99.98
2019-04-28T06:45:57.075Z,98.79
2019-04-28T06:46:57.053Z,98.41
2019-04-28T06:47:57.028Z,98.69
2019-04-28T06:48:57.030Z,97.84
2019-04-28T06:49:57.017Z,98.88
2019-04-28T06:50:56.976Z,98.88
2019-04-28T06:51:56.955Z,98.98
2019-04-28T06:52:56.950Z,98.50
2019-04-28T06:53:56.916Z,98.13
2019-04-28T06:54:56.890Z,98.79
2019-04-28T06:55:56.870Z,97.36
2019-04-28T06:56:56.870Z,97.74
2019-04-28T06:57:56.855Z,98.36
2019-04-28T06:58:59.148Z,97.65
2019-04-28T06:59:56.815Z,97.31
2019-04-28T07:00:56.775Z,98.08
2019-04-28T07:01:56.778Z,97.31
2019-04-28T07:02:56.739Z,96.94
2019-04-28T07:03:56.713Z,96.98
2019-04-28T07:05:01.928Z,95.08
2019-04-28T07:05:56.678Z,94.60
2019-04-28T07:06:56.656Z,93.89
2019-04-28T07:07:56.653Z,95.03
2019-04-28T07:08:56.621Z,95.51
2019-04-28T07:09:56.602Z,95.46
2019-04-28T07:10:56.602Z,94.79
2019-04-28T07:11:56.560Z,94.51
2019-04-28T07:12:56.538Z,94.51
2019-04-28T07:13:56.522Z,94.03
2019-04-28T07:14:56.653Z,94.70
2019-04-28T07:15:56.488Z,94.79
2019-04-28T07:16:56.486Z,94.89
2019-04-28T07:17:59.771Z,94.60
2019-04-28T07:18:56.435Z,93.93
2019-04-28T07:19:56.481Z,92.50
2019-04-28T07:20:56.383Z,92.69
2019-04-28T07:21:56.370Z,92.98
2019-04-28T07:22:56.354Z,93.46
2019-04-28T07:23:56.329Z,94.79
2019-04-28T07:24:56.326Z,94.89
2019-04-28T07:25:56.286Z,94.89
2019-04-28T07:26:56.266Z,94.51
2019-04-28T07:27:56.259Z,94.60
2019-04-28T07:28:56.237Z,94.51
2019-04-28T07:29:56.204Z,93.08
2019-04-28T07:30:56.188Z,93.37
2019-04-28T07:31:56.191Z,92.89
2019-04-28T07:32:56.192Z,92.69
2019-04-28T07:33:56.132Z,93.17
2019-04-28T07:34:56.109Z,93.55
2019-04-28T07:35:56.093Z,95.08
2019-04-28T07:36:56.074Z,93.32
2019-04-28T07:37:56.063Z,92.08
2019-04-28T07:38:56.047Z,91.65
2019-04-28T07:39:56.822Z,92.60
2019-04-28T07:40:55.991Z,93.32
2019-04-28T07:41:55.972Z,92.55
2019-04-28T07:42:55.965Z,92.17
2019-04-28T07:45:38.203Z,92.27
2019-04-28T07:46:38.210Z,93.41
2019-04-28T07:47:38.173Z,93.51
2019-04-28T07:48:38.166Z,93.12
2019-04-28T07:49:38.126Z,92.46
2019-04-28T07:50:38.125Z,92.41
2019-04-28T07:51:38.088Z,92.89
2019-04-28T07:54:20.201Z,93.88
2019-04-28T07:55:20.200Z,93.88
2019-04-28T07:56:20.166Z,92.93
2019-04-28T07:57:20.208Z,91.88
2019-04-28T07:58:20.134Z,89.79
2019-04-28T07:59:20.106Z,90.17
2019-04-28T08:00:20.089Z,91.07
2019-04-28T08:01:20.097Z,89.93
2019-04-28T08:02:20.071Z,90.03
2019-04-28T08:03:20.111Z,88.78
2019-04-28T08:04:20.828Z,88.93
2019-04-28T08:05:20.815Z,88.55
2019-04-28T08:06:20.058Z,88.36
2019-04-28T08:07:20.056Z,88.55
2019-04-28T08:08:20.004Z,90.59
2019-04-28T08:09:20.341Z,89.74
2019-04-28T08:10:20.041Z,88.74
2019-04-28T08:11:20.825Z,89.36
2019-04-28T08:12:20.013Z,88.55
2019-04-28T08:13:20.812Z,88.84
2019-04-28T08:14:20.744Z,89.40
2019-04-28T08:15:19.940Z,90.36
2019-04-28T08:16:19.882Z,89.40
2019-04-28T08:17:19.796Z,90.45
2019-04-28T08:18:19.765Z,91.17
2019-04-28T08:19:19.734Z,91.74
2019-04-28T08:20:19.754Z,90.22
2019-04-28T08:21:19.718Z,89.07
2019-04-28T08:22:20.321Z,89.54
2019-04-28T08:23:19.710Z,89.64
2019-04-28T08:24:19.664Z,87.59
2019-04-28T08:25:19.619Z,87.59
2019-04-28T08:26:19.632Z,86.63
2019-04-28T08:27:19.679Z,87.59
2019-04-28T08:28:19.561Z,87.15
2019-04-28T08:29:19.554Z,86.25
2019-04-28T08:30:19.524Z,86.16
2019-04-28T08:31:19.517Z,87.74
2019-04-28T08:32:19.487Z,87.54
2019-04-28T08:33:19.514Z,87.26
2019-04-28T08:34:19.450Z,87.97
2019-04-28T08:35:19.433Z,89.12
2019-04-28T08:36:19.414Z,87.87
2019-04-28T08:37:19.424Z,87.30
2019-04-28T08:38:19.378Z,86.63
2019-04-28T08:39:19.370Z,86.78
2019-04-28T08:40:19.345Z,86.88
2019-04-28T08:41:19.354Z,87.35
2019-04-28T08:42:19.306Z,87.74
2019-04-28T08:43:19.316Z,87.35
2019-04-28T08:44:19.273Z,88.50
2019-04-28T08:45:19.260Z,88.98
2019-04-28T08:46:19.239Z,89.07
2019-04-28T08:47:19.233Z,88.78
2019-04-28T08:48:19.203Z,88.92
2019-04-28T08:49:19.196Z,87.64
2019-04-28T08:50:19.159Z,88.07
2019-04-28T08:51:19.158Z,87.21
2019-04-28T08:52:19.135Z,87.02
2019-04-28T08:53:19.113Z,86.92
2019-04-28T08:54:19.090Z,85.39
2019-04-28T08:55:19.064Z,86.06
2019-04-28T08:56:19.064Z,87.02
2019-04-28T08:57:19.044Z,86.63
2019-04-28T08:58:19.043Z,85.64
2019-04-28T08:59:19.012Z,85.54
2019-04-28T09:00:18.978Z,86.49
2019-04-28T09:01:18.956Z,87.07
2019-04-28T09:02:18.938Z,86.69
2019-04-28T09:03:18.917Z,87.16
2019-04-28T09:04:18.916Z,87.54
2019-04-28T09:05:18.886Z,87.54
2019-04-28T09:06:18.865Z,89.07
2019-04-28T09:07:18.882Z,89.07
2019-04-28T09:08:18.835Z,87.16
2019-04-28T09:09:18.822Z,87.54
2019-04-28T09:10:18.790Z,87.74
2019-04-28T09:11:18.768Z,87.93
2019-04-28T09:12:18.754Z,87.83
2019-04-28T09:13:18.732Z,88.31
2019-04-28T09:14:18.720Z,89.26
2019-04-28T09:15:18.724Z,88.69
2019-04-28T09:16:18.686Z,88.31
2019-04-28T09:17:18.661Z,87.45
2019-04-28T09:18:18.661Z,87.54
2019-04-28T09:19:18.623Z,88.02
2019-04-28T09:20:18.604Z,88.84
2019-04-28T09:21:18.588Z,88.50
2019-04-28T09:22:18.575Z,89.07
2019-04-28T09:25:00.740Z,88.88
2019-04-28T09:26:00.720Z,87.54
2019-04-28T09:27:00.701Z,88.31
2019-04-28T09:28:00.668Z,87.45
2019-04-28T09:29:00.649Z,87.74
2019-04-28T09:31:42.752Z,87.59
2019-04-28T09:32:42.707Z,87.30
2019-04-28T09:33:42.692Z,86.44
2019-04-28T09:34:42.672Z,86.73
2019-04-28T09:35:42.717Z,86.30
2019-04-28T09:36:42.641Z,86.69
2019-04-28T09:37:42.771Z,87.64
2019-04-28T09:38:42.614Z,88.12
2019-04-28T09:39:42.585Z,87.35
2019-04-28T09:40:42.559Z,87.54
2019-04-28T09:41:42.545Z,87.74
2019-04-28T09:42:42.538Z,88.59
2019-04-28T09:43:42.505Z,87.64
2019-04-28T09:44:42.488Z,88.78
2019-04-28T09:45:42.468Z,87.93
2019-04-28T09:46:42.449Z,88.50
2019-04-28T09:47:42.431Z,88.69
2019-04-28T09:48:42.446Z,87.45
2019-04-28T09:49:42.398Z,86.78
2019-04-28T09:50:42.375Z,86.54
2019-04-28T09:51:42.373Z,87.11
2019-04-28T09:52:42.340Z,87.40
2019-04-28T09:53:42.336Z,87.63
2019-04-28T09:54:42.300Z,86.01
2019-04-28T09:55:42.278Z,83.62
2019-04-28T09:56:42.260Z,84.10
2019-04-28T09:57:42.251Z,83.53
2019-04-28T09:58:42.249Z,83.43
2019-04-28T09:59:42.228Z,83.53
2019-04-28T10:00:42.221Z,82.72
2019-04-28T10:01:42.186Z,83.24
2019-04-28T10:02:42.157Z,83.05
2019-04-28T10:03:42.140Z,82.57
2019-04-28T10:04:42.413Z,81.85
2019-04-28T10:05:42.125Z,80.90
2019-04-28T10:08:28.262Z,80.76
2019-04-28T10:09:28.218Z,81.33
2019-04-28T10:10:28.201Z,82.19
2019-04-28T10:11:30.746Z,82.95
2019-04-28T10:12:28.768Z,83.34
2019-04-28T10:13:28.163Z,81.24
2019-04-28T10:14:28.151Z,81.43
2019-04-28T10:15:28.106Z,81.90
2019-04-28T10:16:28.094Z,81.62
2019-04-28T10:17:28.082Z,82.19
2019-04-28T10:18:28.059Z,81.90
2019-04-28T10:19:28.069Z,81.56
2019-04-28T10:20:28.026Z,81.37
2019-04-28T10:21:28.021Z,82.52
2019-04-28T10:22:27.986Z,83.72
2019-04-28T10:23:27.973Z,82.95
2019-04-28T10:24:27.947Z,82.86
2019-04-28T10:25:27.949Z,83.48
2019-04-28T10:26:27.924Z,84.72
2019-04-28T10:27:27.905Z,85.21
2019-04-28T10:28:27.884Z,85.87
2019-04-28T10:29:27.879Z,87.64
2019-04-28T10:30:27.875Z,87.54
2019-04-28T10:31:27.844Z,88.40
2019-04-28T10:32:27.805Z,90.79
2019-04-28T10:33:27.788Z,93.74
2019-04-28T10:34:27.767Z,94.84
2019-04-28T10:35:27.769Z,96.75
2019-04-28T10:36:27.753Z,99.99
2019-04-28T10:37:27.737Z,99.75
2019-04-28T10:38:27.709Z,99.99
2019-04-28T10:39:27.688Z,99.99
2019-04-28T10:40:27.668Z,99.99
2019-04-28T10:41:27.657Z,99.99
2019-04-28T10:42:27.623Z,99.99
2019-04-28T10:43:27.622Z,99.99
2019-04-28T10:44:27.616Z,99.99
2019-04-28T10:45:27.586Z,99.99
2019-04-28T10:46:27.552Z,99.99
2019-04-28T10:47:27.529Z,99.99
2019-04-28T10:48:27.525Z,99.99
2019-04-28T10:49:27.509Z,99.99
2019-04-28T10:50:27.473Z,99.99
2019-04-28T10:51:27.462Z,99.99
2019-04-28T10:52:27.464Z,99.99
2019-04-28T10:53:27.437Z,99.99
2019-04-28T10:54:27.429Z,99.99
2019-04-28T10:55:27.379Z,99.99
2019-04-28T10:56:27.385Z,99.99
2019-04-28T10:57:27.351Z,99.99
2019-04-28T10:58:27.335Z,99.99
2019-04-28T10:59:27.302Z,99.99
2019-04-28T11:00:27.304Z,99.99
2019-04-28T11:01:27.271Z,99.99
2019-04-28T11:02:27.244Z,99.99
2019-04-28T11:03:27.233Z,99.99
2019-04-28T11:04:27.204Z,99.99
2019-04-28T11:05:27.196Z,99.99
2019-04-28T11:06:27.186Z,99.99
2019-04-28T11:07:28.778Z,97.66
2019-04-28T11:08:27.136Z,98.42
2019-04-28T11:09:30.780Z,99.99
2019-04-28T11:10:27.106Z,99.99
2019-04-28T11:11:27.097Z,99.99
2019-04-28T11:12:27.064Z,98.08
2019-04-28T11:13:27.060Z,99.52
2019-04-28T11:14:27.028Z,96.84
2019-04-28T11:15:27.026Z,96.22
2019-04-28T11:16:27.007Z,96.70
2019-04-28T11:19:09.251Z,93.46
2019-04-28T11:20:09.236Z,93.46
2019-04-28T11:21:09.241Z,93.36
2019-04-28T11:22:09.218Z,93.12
2019-04-28T11:23:09.174Z,92.65
2019-04-28T11:24:09.156Z,96.37
2019-04-28T11:25:09.143Z,97.42
2019-04-28T11:26:09.133Z,99.04
2019-04-28T11:27:09.118Z,95.98
2019-04-28T11:28:09.103Z,95.70
2019-04-28T11:29:09.072Z,94.84
2019-04-28T11:30:09.054Z,95.51
2019-04-28T11:31:09.033Z,93.51
2019-04-28T11:32:09.021Z,96.66
2019-04-28T11:33:09.021Z,97.32
2019-04-28T11:34:08.976Z,94.07
2019-04-28T11:35:20.926Z,93.60
2019-04-28T11:36:08.960Z,92.88
2019-04-28T11:37:08.928Z,93.36
2019-04-28T11:38:08.906Z,92.69
2019-04-28T11:39:08.915Z,92.02
2019-04-28T11:40:08.880Z,91.83
2019-04-28T11:41:11.502Z,94.79
2019-04-28T11:42:08.835Z,92.97
2019-04-28T11:43:08.823Z,91.74
2019-04-28T11:44:08.799Z,90.88
2019-04-28T11:45:08.819Z,89.64
2019-04-28T11:46:08.771Z,89.45
2019-04-28T11:47:08.759Z,89.54
2019-04-28T11:48:08.726Z,89.45
2019-04-28T11:49:08.712Z,90.69
2019-04-28T11:50:08.706Z,89.54
2019-04-28T11:51:08.703Z,91.30
2019-04-28T11:52:08.673Z,92.45
2019-04-28T11:53:08.645Z,89.59
2019-04-28T11:54:08.623Z,87.77
2019-04-28T11:55:08.764Z,85.15
2019-04-28T11:56:08.583Z,86.10
2019-04-28T11:57:08.599Z,85.44
2019-04-28T11:58:08.585Z,86.30
2019-04-28T11:59:08.551Z,85.77
2019-04-28T12:00:08.517Z,86.30
2019-04-28T12:01:08.523Z,82.95
2019-04-28T12:02:08.482Z,82.52
2019-04-28T12:03:08.476Z,82.04
2019-04-28T12:04:08.451Z,81.66
2019-04-28T12:05:08.431Z,81.47
2019-04-28T12:06:08.434Z,82.00
2019-04-28T12:07:08.400Z,83.14
2019-04-28T12:10:04.362Z,84.29
2019-04-28T12:10:54.755Z,83.62
2019-04-28T12:11:54.725Z,83.24
2019-04-28T12:12:54.741Z,83.05
2019-04-28T12:13:54.711Z,80.57
2019-04-28T12:14:54.672Z,80.19
2019-04-28T12:15:54.655Z,80.24
2019-04-28T12:16:58.675Z,80.28
2019-04-28T12:17:54.622Z,81.52
2019-04-28T12:18:54.616Z,81.18
2019-04-28T12:19:54.635Z,80.90
2019-04-28T12:20:54.564Z,81.47
2019-04-28T12:21:54.549Z,79.98
2019-04-28T12:22:54.537Z,79.02
2019-04-28T12:23:54.535Z,78.26
2019-04-28T12:24:54.495Z,78.68
2019-04-28T12:25:54.492Z,79.54
2019-04-28T12:26:54.479Z,79.35
2019-04-28T12:29:36.764Z,79.73
2019-04-28T12:30:36.811Z,80.50
2019-04-28T12:31:36.767Z,79.60
2019-04-28T12:32:36.730Z,79.50
2019-04-28T12:33:36.709Z,79.94
2019-04-28T12:34:36.714Z,80.46
2019-04-28T12:35:47.075Z,78.97
2019-04-28T12:36:36.645Z,77.21
2019-04-28T12:37:36.642Z,78.49
2019-04-28T12:38:36.612Z,78.78
2019-04-28T12:39:36.609Z,78.58
2019-04-28T12:40:36.575Z,78.34
2019-04-28T12:41:36.559Z,76.90
2019-04-28T12:42:36.573Z,76.23
2019-04-28T12:43:36.531Z,75.47
2019-04-28T12:44:36.510Z,76.20
2019-04-28T12:45:36.498Z,75.52
2019-04-28T12:46:36.495Z,75.87
2019-04-28T12:47:36.458Z,77.50
2019-04-28T12:48:36.472Z,78.74
2019-04-28T12:49:36.467Z,79.75
2019-04-28T12:50:36.420Z,79.85
2019-04-28T12:51:36.404Z,81.47
2019-04-28T12:52:36.385Z,81.47
2019-04-28T12:53:36.369Z,81.47
2019-04-28T12:54:36.350Z,82.48
2019-04-28T12:55:36.355Z,83.62
2019-04-28T12:56:36.332Z,85.44
2019-04-28T12:57:36.311Z,86.39
2019-04-28T12:58:36.294Z,85.91
2019-04-28T12:59:36.283Z,86.20
2019-04-28T13:00:36.243Z,85.44
2019-04-28T13:01:36.264Z,85.44
2019-04-28T13:04:18.282Z,84.58
2019-04-28T13:05:18.256Z,83.72
2019-04-28T13:06:18.285Z,83.43
2019-04-28T13:07:18.234Z,83.81